Time;durP1;ratioP1;P1;durP2;ratioP2;P2;SDS_P1;SDS_P2;PMS_P1;PMS_P2;Temp;Humidity;BMP_temperature;BMP_pressure;BME280_temperature;BME280_humidity;BME280_pressure;Samples;Min_cycle;Max_cycle;Signal;HPM_P1;HPM_P2
2023/04/23 00:00:43;;;;;;;78.00;45.70;;;8.10;99.90;;;;;;4974634;28;20229;-81
2023/04/23 00:03:14;;;;;;;79.17;47.27;;;8.10;99.90;;;;;;4974463;28;20205;-81
2023/04/23 00:05:42;;;;;;;82.70;48.73;;;8.10;99.90;;;;;;4976062;28;20211;-80
2023/04/23 00:08:10;;;;;;;83.80;47.30;;;8.10;99.90;;;;;;4994296;28;20192;-81
2023/04/23 00:10:38;;;;;;;80.20;47.30;;;8.10;99.90;;;;;;4988400;28;20196;-81
2023/04/23 00:13:05;;;;;;;85.03;47.77;;;8.10;99.90;;;;;;4973627;28;20668;-80
2023/04/23 00:15:33;;;;;;;79.20;48.73;;;8.10;99.90;;;;;;4974201;28;20585;-81
2023/04/23 00:18:01;;;;;;;80.57;49.03;;;8.10;99.90;;;;;;4974268;28;20204;-81
2023/04/23 00:20:28;;;;;;;82.93;49.63;;;8.10;99.90;;;;;;4984463;28;20701;-81
2023/04/23 00:22:55;;;;;;;82.63;49.73;;;8.10;99.90;;;;;;4987962;28;20613;-81
2023/04/23 00:25:22;;;;;;;81.80;50.10;;;8.10;99.90;;;;;;4974264;28;20284;-81
2023/04/23 00:27:49;;;;;;;74.97;48.17;;;8.10;99.90;;;;;;4974768;28;20296;-80
2023/04/23 00:30:17;;;;;;;80.60;49.40;;;8.10;99.90;;;;;;4974775;28;20205;-80
2023/04/23 00:32:44;;;;;;;81.17;49.93;;;8.00;99.90;;;;;;4974151;28;20201;-80
2023/04/23 00:35:12;;;;;;;82.67;49.97;;;8.00;99.90;;;;;;4993003;28;20692;-81
2023/04/23 00:37:39;;;;;;;86.93;53.17;;;8.00;99.90;;;;;;4993159;28;20211;-78
2023/04/23 00:40:08;;;;;;;87.90;51.53;;;8.00;99.90;;;;;;4993127;28;20188;-81
2023/04/23 00:42:35;;;;;;;96.77;53.57;;;8.00;99.90;;;;;;4993297;28;20931;-81
2023/04/23 00:45:02;;;;;;;90.57;53.47;;;8.00;99.90;;;;;;4991289;28;20200;-80
2023/04/23 00:47:29;;;;;;;96.80;53.70;;;8.00;99.90;;;;;;4973649;28;20904;-79
2023/04/23 00:49:58;;;;;;;90.67;54.40;;;8.00;99.90;;;;;;4973978;28;20208;-81
2023/04/23 00:52:27;;;;;;;92.83;53.60;;;8.00;99.90;;;;;;4973999;28;20196;-80
2023/04/23 00:54:54;;;;;;;92.80;53.07;;;8.10;99.90;;;;;;4973510;28;20212;-79
2023/04/23 00:57:22;;;;;;;96.13;54.80;;;8.10;99.90;;;;;;4974295;28;20205;-81
2023/04/23 00:59:49;;;;;;;95.90;56.30;;;8.00;99.90;;;;;;4976218;28;20201;-80
2023/04/23 01:02:17;;;;;;;100.47;54.93;;;8.00;99.90;;;;;;4977741;28;20227;-80
2023/04/23 01:04:45;;;;;;;101.60;58.37;;;8.10;99.90;;;;;;4993045;28;20291;-81
2023/04/23 01:07:12;;;;;;;100.13;56.20;;;8.10;99.90;;;;;;4996405;28;20214;-81
2023/04/23 01:09:41;;;;;;;96.83;55.93;;;8.20;99.90;;;;;;4996646;28;20261;-81
2023/04/23 01:12:10;;;;;;;100.20;57.50;;;8.10;99.90;;;;;;4990857;28;20597;-81
2023/04/23 01:14:37;;;;;;;99.33;57.00;;;8.20;99.90;;;;;;4977344;28;20636;-81
2023/04/23 01:17:06;;;;;;;97.93;57.73;;;8.20;99.90;;;;;;4977652;28;20240;-81
2023/04/23 01:19:33;;;;;;;103.20;58.50;;;8.20;99.90;;;;;;4977498;28;20204;-81
2023/04/23 01:22:01;;;;;;;106.73;60.43;;;8.30;99.90;;;;;;4977114;28;20219;-81
2023/04/23 01:24:30;;;;;;;102.43;58.23;;;8.30;99.90;;;;;;4977265;28;20500;-81
2023/04/23 01:26:58;;;;;;;109.90;59.13;;;8.30;99.90;;;;;;4977778;28;20196;-83
2023/04/23 01:29:26;;;;;;;109.60;58.50;;;8.30;99.90;;;;;;4993474;28;20219;-80
2023/04/23 01:31:54;;;;;;;104.43;58.10;;;8.30;99.90;;;;;;4997051;28;20233;-80
2023/04/23 01:34:21;;;;;;;95.07;55.63;;;8.30;99.90;;;;;;4992658;28;20440;-80
2023/04/23 01:36:48;;;;;;;100.40;58.20;;;8.30;99.90;;;;;;4991868;28;20608;-81
2023/04/23 01:39:15;;;;;;;101.53;58.23;;;8.40;99.90;;;;;;4977041;28;20199;-80
2023/04/23 01:41:44;;;;;;;104.97;58.83;;;8.30;99.90;;;;;;4976932;28;20531;-81
2023/04/23 01:44:11;;;;;;;107.63;57.70;;;8.30;99.90;;;;;;4976553;28;20228;-81
2023/04/23 01:46:38;;;;;;;105.87;56.87;;;8.40;99.90;;;;;;4976582;28;20239;-81
2023/04/23 01:49:05;;;;;;;100.17;57.40;;;8.40;99.90;;;;;;4975642;28;20275;-80
2023/04/23 01:51:32;;;;;;;98.07;57.03;;;8.40;99.90;;;;;;4975278;28;20624;-81
2023/04/23 01:53:59;;;;;;;104.83;57.60;;;8.40;99.90;;;;;;4976329;28;20201;-78
2023/04/23 01:56:29;;;;;;;103.83;57.50;;;8.50;99.90;;;;;;4975568;28;20205;-79
2023/04/23 01:58:57;;;;;;;117.83;62.30;;;8.50;99.90;;;;;;4987627;28;20215;-79
2023/04/23 02:01:24;;;;;;;101.13;55.87;;;8.50;99.90;;;;;;4995326;28;20262;-78
2023/04/23 02:03:51;;;;;;;104.27;57.63;;;8.50;99.90;;;;;;4986051;28;20231;-78
2023/04/23 02:06:18;;;;;;;111.90;62.03;;;8.50;99.90;;;;;;4975701;28;20550;-78
2023/04/23 02:08:45;;;;;;;110.10;61.40;;;8.60;99.90;;;;;;4976198;28;20291;-78
2023/04/23 02:11:12;;;;;;;102.93;59.27;;;8.60;99.90;;;;;;4982300;23;20324;-77
2023/04/23 02:13:39;;;;;;;101.27;57.10;;;8.60;99.90;;;;;;4983500;28;20252;-78
2023/04/23 02:16:08;;;;;;;103.03;54.97;;;8.60;99.90;;;;;;4994889;28;20231;-80
2023/04/23 02:18:35;;;;;;;99.03;55.40;;;8.60;99.90;;;;;;4994506;28;20199;-79
2023/04/23 02:21:02;;;;;;;110.27;60.13;;;8.70;99.90;;;;;;4995227;28;20208;-78
2023/04/23 02:23:29;;;;;;;109.03;59.63;;;8.70;99.90;;;;;;4994558;28;20233;-77
2023/04/23 02:25:56;;;;;;;101.47;56.57;;;8.70;99.90;;;;;;4992950;28;20207;-78
2023/04/23 02:28:23;;;;;;;101.20;56.87;;;8.70;99.90;;;;;;4994281;28;20287;-78
2023/04/23 02:30:50;;;;;;;101.70;56.97;;;8.70;99.90;;;;;;4993819;28;20196;-78
2023/04/23 02:33:18;;;;;;;94.07;55.33;;;8.80;99.90;;;;;;4994348;28;20196;-79
2023/04/23 02:35:45;;;;;;;97.40;56.83;;;8.80;99.90;;;;;;4994459;28;20258;-79
2023/04/23 02:38:12;;;;;;;99.83;57.33;;;8.80;99.90;;;;;;4994230;28;20243;-79
2023/04/23 02:40:39;;;;;;;95.67;56.73;;;8.80;99.90;;;;;;4994271;28;20204;-80
2023/04/23 02:43:06;;;;;;;96.37;55.57;;;8.80;99.90;;;;;;4994441;28;20727;-77
2023/04/23 02:45:33;;;;;;;97.53;54.53;;;8.90;99.90;;;;;;4981329;28;20205;-81
2023/04/23 02:47:59;;;;;;;96.00;53.30;;;8.90;99.90;;;;;;4975437;28;20204;-79
2023/04/23 02:50:28;;;;;;;92.57;53.10;;;8.90;99.90;;;;;;4993929;28;20220;-79
2023/04/23 02:52:55;;;;;;;98.33;54.37;;;8.90;99.90;;;;;;4992940;28;20696;-77
2023/04/23 02:55:24;;;;;;;91.63;54.87;;;8.90;99.90;;;;;;4994230;28;20231;-79
2023/04/23 02:57:51;;;;;;;91.30;53.20;;;8.90;99.90;;;;;;4994481;28;20204;-79
2023/04/23 03:00:18;;;;;;;96.13;53.30;;;8.90;99.90;;;;;;4993891;28;20628;-79
2023/04/23 03:02:46;;;;;;;94.50;54.23;;;8.90;99.90;;;;;;4993755;28;20880;-78
2023/04/23 03:05:13;;;;;;;92.10;53.73;;;8.90;99.90;;;;;;4994146;28;20204;-78
2023/04/23 03:07:41;;;;;;;85.67;48.97;;;8.90;99.90;;;;;;4993546;28;20202;-80
2023/04/23 03:10:09;;;;;;;85.20;50.23;;;8.90;99.90;;;;;;4993869;28;20212;-79
2023/04/23 03:12:36;;;;;;;86.13;48.93;;;8.90;99.90;;;;;;4993618;28;20326;-80
2023/04/23 03:15:03;;;;;;;91.10;52.57;;;8.90;99.90;;;;;;4993435;28;20299;-77
2023/04/23 03:17:30;;;;;;;84.17;51.70;;;8.90;99.90;;;;;;4994028;28;20575;-80
2023/04/23 03:19:57;;;;;;;87.57;50.23;;;9.00;99.90;;;;;;4994437;28;20303;-79
2023/04/23 03:22:24;;;;;;;85.97;51.60;;;9.00;99.90;;;;;;4992779;28;20246;-79
2023/04/23 03:24:52;;;;;;;77.63;49.60;;;9.00;99.90;;;;;;4993967;28;20204;-81
2023/04/23 03:27:19;;;;;;;80.13;49.17;;;9.00;99.90;;;;;;4993962;28;20211;-79
2023/04/23 03:29:46;;;;;;;75.63;47.33;;;9.00;99.90;;;;;;4992677;28;20218;-80
2023/04/23 03:32:13;;;;;;;74.30;48.73;;;9.00;99.90;;;;;;4993081;28;20204;-79
2023/04/23 03:34:40;;;;;;;79.27;47.57;;;9.00;99.90;;;;;;4993881;28;20669;-78
2023/04/23 03:37:06;;;;;;;74.20;47.27;;;9.00;99.90;;;;;;4993285;28;20208;-79
2023/04/23 03:39:33;;;;;;;78.90;47.13;;;9.00;99.90;;;;;;4993056;28;20303;-78
2023/04/23 03:42:02;;;;;;;80.37;46.93;;;9.00;99.90;;;;;;4992966;28;20303;-79
2023/04/23 03:44:28;;;;;;;71.90;46.37;;;8.90;99.90;;;;;;4993453;28;20295;-79
2023/04/23 03:46:55;;;;;;;68.00;44.30;;;8.90;99.90;;;;;;4992954;28;20653;-77
2023/04/23 03:49:22;;;;;;;77.90;46.23;;;8.90;99.90;;;;;;4992114;28;20250;-80
2023/04/23 03:51:49;;;;;;;75.03;47.17;;;8.90;99.90;;;;;;4993394;28;20196;-80
2023/04/23 03:54:17;;;;;;;70.80;44.63;;;8.90;99.90;;;;;;4992778;28;20239;-78
2023/04/23 03:56:44;;;;;;;72.17;44.57;;;8.80;99.90;;;;;;4992687;28;20208;-78
2023/04/23 03:59:12;;;;;;;67.63;43.80;;;8.80;99.90;;;;;;4993121;28;20204;-78
2023/04/23 04:01:39;;;;;;;70.53;45.70;;;8.80;99.90;;;;;;4993291;28;20215;-79
2023/04/23 04:04:06;;;;;;;70.90;47.03;;;8.90;99.90;;;;;;4992842;28;20234;-79
2023/04/23 04:06:33;;;;;;;75.47;46.77;;;8.90;99.90;;;;;;4992932;28;20210;-78
2023/04/23 04:09:00;;;;;;;66.87;43.40;;;8.90;99.90;;;;;;4992838;28;20207;-79
2023/04/23 04:11:27;;;;;;;69.63;45.47;;;8.90;99.90;;;;;;4992421;28;20314;-79
2023/04/23 04:13:54;;;;;;;69.63;44.00;;;8.90;99.90;;;;;;4992565;28;20227;-78
2023/04/23 04:16:22;;;;;;;67.50;43.47;;;8.90;99.90;;;;;;4992917;28;20277;-78
2023/04/23 04:18:49;;;;;;;66.60;45.40;;;8.90;99.90;;;;;;4992413;28;20204;-79
2023/04/23 04:21:16;;;;;;;68.13;44.73;;;8.90;99.90;;;;;;4992204;28;20295;-78
2023/04/23 04:23:43;;;;;;;70.70;44.17;;;9.00;99.90;;;;;;4993843;28;20289;-81
2023/04/23 04:26:10;;;;;;;67.20;43.87;;;9.00;99.90;;;;;;4993636;28;20488;-80
2023/04/23 04:28:38;;;;;;;70.00;42.93;;;9.00;99.90;;;;;;4993767;28;20212;-80
2023/04/23 04:31:07;;;;;;;72.60;44.73;;;9.00;99.90;;;;;;4994217;28;20258;-81
2023/04/23 04:33:38;;;;;;;72.17;45.87;;;9.00;99.90;;;;;;4993909;28;20306;-81
2023/04/23 04:36:07;;;;;;;68.47;43.77;;;9.00;99.90;;;;;;4997800;28;20291;-82
2023/04/23 04:38:36;;;;;;;61.33;39.93;;;9.00;99.90;;;;;;4997480;28;20192;-80
2023/04/23 04:41:04;;;;;;;68.63;44.73;;;9.00;99.90;;;;;;4997682;28;20680;-78
2023/04/23 04:43:31;;;;;;;67.03;42.67;;;9.00;99.90;;;;;;4997042;28;20228;-81
2023/04/23 04:45:59;;;;;;;66.97;44.00;;;9.00;99.90;;;;;;4997348;28;20200;-78
2023/04/23 04:48:26;;;;;;;66.60;43.20;;;9.10;99.90;;;;;;4997675;28;20200;-81
2023/04/23 04:50:54;;;;;;;64.60;42.53;;;9.10;99.90;;;;;;4997657;28;20200;-81
2023/04/23 04:53:21;;;;;;;60.97;41.70;;;9.10;99.90;;;;;;4990808;28;20196;-79
2023/04/23 04:55:48;;;;;;;63.50;42.57;;;9.10;99.90;;;;;;4978087;28;20211;-81
2023/04/23 04:58:15;;;;;;;66.53;42.00;;;9.20;99.90;;;;;;4995786;28;20243;-82
2023/04/23 05:00:42;;;;;;;66.90;43.23;;;9.20;99.90;;;;;;4997151;28;20667;-79
2023/04/23 05:03:09;;;;;;;64.70;42.27;;;9.20;99.90;;;;;;4997443;28;20224;-81
2023/04/23 05:05:36;;;;;;;63.40;42.50;;;9.20;99.90;;;;;;4996948;28;20399;-80
2023/04/23 05:08:04;;;;;;;66.13;42.50;;;9.30;99.90;;;;;;4996965;28;20220;-81
2023/04/23 05:10:31;;;;;;;64.20;43.63;;;9.30;99.90;;;;;;4996668;28;20247;-79
2023/04/23 05:12:58;;;;;;;60.37;42.57;;;9.30;99.90;;;;;;4996287;28;20303;-78
2023/04/23 05:15:25;;;;;;;63.50;42.77;;;9.30;99.90;;;;;;4996068;28;20202;-79
2023/04/23 05:17:52;;;;;;;59.63;41.17;;;9.30;99.90;;;;;;4996049;28;20200;-79
2023/04/23 05:20:20;;;;;;;56.17;39.33;;;9.40;99.90;;;;;;4994894;28;20230;-79
2023/04/23 05:22:48;;;;;;;64.20;42.70;;;9.40;99.90;;;;;;4996332;28;20219;-78
2023/04/23 05:25:16;;;;;;;56.37;39.60;;;9.40;99.90;;;;;;4995952;28;20369;-79
2023/04/23 05:27:43;;;;;;;55.70;38.13;;;9.40;99.90;;;;;;4994529;28;20302;-78
2023/04/23 05:30:11;;;;;;;55.07;38.77;;;9.40;99.90;;;;;;4996180;28;20196;-82
2023/04/23 05:32:38;;;;;;;61.93;40.40;;;9.40;99.90;;;;;;4995769;28;20298;-78
2023/04/23 05:35:06;;;;;;;55.93;38.93;;;9.40;99.90;;;;;;4995260;28;20188;-78
2023/04/23 05:37:33;;;;;;;55.07;39.93;;;9.50;99.90;;;;;;4995465;28;20207;-79
2023/04/23 05:40:01;;;;;;;55.90;38.73;;;9.50;99.90;;;;;;4995409;28;20204;-79
2023/04/23 05:42:29;;;;;;;57.90;40.27;;;9.50;99.90;;;;;;4994509;28;20252;-78
2023/04/23 05:44:56;;;;;;;58.73;39.73;;;9.50;99.90;;;;;;4994394;28;20492;-79
2023/04/23 05:47:23;;;;;;;59.77;40.30;;;9.60;99.90;;;;;;4995900;28;20262;-79
2023/04/23 05:49:50;;;;;;;53.43;38.47;;;9.50;99.90;;;;;;4994848;28;20219;-79
2023/04/23 05:52:17;;;;;;;56.57;38.50;;;9.60;99.90;;;;;;4994845;28;20207;-79
2023/04/23 05:54:44;;;;;;;51.87;37.53;;;9.60;99.90;;;;;;4995437;28;20205;-79
2023/04/23 05:57:11;;;;;;;56.53;39.37;;;9.70;99.90;;;;;;4988898;28;20215;-79
2023/04/23 05:59:40;;;;;;;52.40;37.37;;;9.70;99.90;;;;;;4976167;28;20216;-79
2023/04/23 06:02:07;;;;;;;51.97;39.03;;;9.70;99.90;;;;;;4975790;28;20212;-79
2023/04/23 06:04:34;;;;;;;56.77;38.13;;;9.80;99.90;;;;;;4985429;28;20208;-79
2023/04/23 06:07:01;;;;;;;50.43;36.17;;;9.90;99.90;;;;;;4994883;28;20196;-78
2023/04/23 06:09:28;;;;;;;46.27;34.50;;;9.90;99.90;;;;;;4981962;28;20287;-76
2023/04/23 06:11:55;;;;;;;49.13;36.07;;;9.90;99.90;;;;;;4975371;28;20224;-77
2023/04/23 06:14:22;;;;;;;49.43;35.63;;;9.90;99.90;;;;;;4975066;28;20308;-78
2023/04/23 06:16:50;;;;;;;51.60;36.33;;;10.00;99.90;;;;;;4989396;28;20214;-78
2023/04/23 06:19:17;;;;;;;50.17;35.93;;;10.10;99.90;;;;;;4993715;28;20204;-78
2023/04/23 06:21:44;;;;;;;49.70;34.97;;;10.20;99.90;;;;;;4991616;28;20561;-78
2023/04/23 06:24:11;;;;;;;47.23;35.03;;;10.30;99.90;;;;;;4983211;28;20216;-78
2023/04/23 06:26:38;;;;;;;49.53;36.33;;;10.40;99.90;;;;;;4985530;28;20356;-78
2023/04/23 06:29:05;;;;;;;45.43;33.63;;;10.40;99.90;;;;;;4980183;28;20219;-78
2023/04/23 06:31:32;;;;;;;45.27;33.43;;;10.50;99.90;;;;;;4983550;28;20192;-78
2023/04/23 06:34:00;;;;;;;43.00;33.07;;;10.60;99.90;;;;;;4992907;28;20639;-79
2023/04/23 06:36:27;;;;;;;45.13;34.90;;;10.70;99.90;;;;;;4994589;28;20628;-79
2023/04/23 06:38:54;;;;;;;46.37;35.07;;;10.80;99.90;;;;;;4993610;28;20231;-78
2023/04/23 06:41:21;;;;;;;41.67;32.27;;;10.90;99.90;;;;;;4991807;28;20204;-79
2023/04/23 06:43:48;;;;;;;41.70;31.03;;;11.00;99.90;;;;;;4993566;28;20266;-80
2023/04/23 06:46:15;;;;;;;42.87;33.10;;;11.10;99.90;;;;;;4992362;28;20287;-78
2023/04/23 06:48:42;;;;;;;38.30;28.80;;;11.20;99.90;;;;;;4993020;28;20339;-80
2023/04/23 06:51:10;;;;;;;36.10;27.83;;;11.50;99.90;;;;;;4994106;28;20295;-82
2023/04/23 06:53:37;;;;;;;33.03;25.97;;;11.60;99.90;;;;;;4993953;28;20212;-81
2023/04/23 06:56:04;;;;;;;30.30;23.67;;;11.80;99.90;;;;;;4994983;28;20210;-81
2023/04/23 06:58:31;;;;;;;28.07;21.87;;;12.10;99.90;;;;;;4994804;28;20208;-80
2023/04/23 07:00:59;;;;;;;24.63;21.10;;;12.30;99.90;;;;;;4994256;28;20672;-82
2023/04/23 07:03:27;;;;;;;25.70;20.93;;;12.50;99.90;;;;;;4975438;28;20216;-78
2023/04/23 07:05:54;;;;;;;25.03;19.20;;;12.70;99.90;;;;;;4974764;28;20292;-78
2023/04/23 07:08:22;;;;;;;21.57;18.00;;;12.90;99.90;;;;;;4974937;28;20205;-80
2023/04/23 07:10:50;;;;;;;21.30;17.37;;;13.20;99.90;;;;;;4982182;28;20322;-80
2023/04/23 07:13:17;;;;;;;20.97;17.33;;;13.50;99.90;;;;;;4992740;28;20224;-80
2023/04/23 07:15:44;;;;;;;21.03;15.77;;;13.70;99.90;;;;;;4993834;28;20291;-82
2023/04/23 07:18:11;;;;;;;17.53;14.10;;;14.00;99.90;;;;;;4994283;28;20235;-81
2023/04/23 07:20:38;;;;;;;17.17;13.53;;;14.30;99.90;;;;;;4992886;28;20291;-79
2023/04/23 07:23:05;;;;;;;16.23;13.13;;;14.50;99.90;;;;;;4993503;28;20349;-80
2023/04/23 07:25:33;;;;;;;16.90;12.27;;;14.70;99.90;;;;;;4993737;28;20196;-81
2023/04/23 07:28:07;;;;;;;14.57;12.80;;;15.00;99.90;;;;;;4938770;28;20564;-83
2023/04/23 07:30:34;;;;;;;16.17;13.07;;;15.20;99.90;;;;;;5010077;28;20344;-83
2023/04/23 07:33:01;;;;;;;14.55;12.35;;;15.50;99.90;;;;;;5000359;28;20274;-80
2023/04/23 07:35:28;;;;;;;12.70;11.27;;;15.70;99.90;;;;;;5013233;28;20205;-81
2023/04/23 07:37:56;;;;;;;13.45;10.93;;;16.00;99.90;;;;;;5008800;28;20200;-82
2023/04/23 07:40:24;;;;;;;14.82;11.40;;;16.20;99.90;;;;;;4998593;28;20206;-82
2023/04/23 07:42:52;;;;;;;13.52;9.68;;;16.30;99.90;;;;;;5001543;28;20223;-82
2023/04/23 07:45:19;;;;;;;12.40;8.45;;;16.50;99.90;;;;;;5007510;28;20215;-81
2023/04/23 07:47:47;;;;;;;11.32;8.23;;;16.70;99.90;;;;;;5013095;28;20195;-81
2023/04/23 07:50:14;;;;;;;9.88;8.10;;;16.90;99.90;;;;;;5004110;28;20204;-80
2023/04/23 07:52:41;;;;;;;9.50;7.40;;;17.00;99.90;;;;;;4993718;28;20243;-81
2023/04/23 07:55:09;;;;;;;12.40;8.63;;;16.90;99.90;;;;;;4992182;28;20286;-80
2023/04/23 07:57:36;;;;;;;12.57;7.78;;;17.00;99.90;;;;;;4993769;28;20250;-80
2023/04/23 08:00:08;;;;;;;8.38;7.20;;;17.00;99.90;;;;;;4993098;28;20200;-81
2023/04/23 08:02:34;;;;;;;9.93;6.95;;;17.10;99.90;;;;;;4992260;28;20208;-80
2023/04/23 08:05:02;;;;;;;9.52;6.68;;;17.20;99.90;;;;;;4993387;28;20196;-79
2023/04/23 08:07:29;;;;;;;9.45;6.57;;;17.10;99.90;;;;;;4993148;28;20196;-80
2023/04/23 08:10:01;;;;;;;7.88;6.13;;;17.10;99.90;;;;;;4992591;28;20211;-79
2023/04/23 08:12:28;;;;;;;9.05;6.00;;;17.30;99.90;;;;;;4973319;28;20248;-80
2023/04/23 08:14:55;;;;;;;11.52;7.00;;;17.20;99.90;;;;;;4973663;28;20259;-81
2023/04/23 08:17:23;;;;;;;10.07;6.95;;;17.10;99.90;;;;;;4982624;28;20208;-81
2023/04/23 08:19:50;;;;;;;9.05;6.07;;;17.00;99.90;;;;;;4993162;28;20258;-80
2023/04/23 08:22:17;;;;;;;11.35;6.38;;;17.20;99.90;;;;;;4992285;28;20631;-80
2023/04/23 08:24:44;;;;;;;11.75;6.43;;;17.40;99.90;;;;;;4991722;28;20228;-80
2023/04/23 08:27:11;;;;;;;8.68;5.60;;;17.40;99.90;;;;;;4992539;28;20231;-79
2023/04/23 08:29:38;;;;;;;6.25;4.70;;;17.50;99.90;;;;;;4992807;28;20206;-79
2023/04/23 08:32:05;;;;;;;8.23;4.75;;;17.60;99.90;;;;;;4991525;28;20200;-80
2023/04/23 08:34:33;;;;;;;7.57;4.50;;;17.90;99.90;;;;;;4992335;28;20246;-79
2023/04/23 08:37:00;;;;;;;7.70;5.28;;;18.20;99.90;;;;;;4992381;28;20283;-79
2023/04/23 08:39:29;;;;;;;8.75;5.20;;;18.50;99.90;;;;;;4991893;28;20554;-79
2023/04/23 08:41:57;;;;;;;10.98;5.15;;;18.60;99.90;;;;;;4991742;28;20295;-80
2023/04/23 08:44:26;;;;;;;9.30;4.70;;;18.70;99.90;;;;;;4991580;28;20228;-79
2023/04/23 08:46:54;;;;;;;9.82;4.18;;;19.00;99.90;;;;;;4992690;28;20477;-80
2023/04/23 08:49:21;;;;;;;7.13;4.10;;;19.10;99.90;;;;;;4991526;28;20238;-79
2023/04/23 08:51:52;;;;;;;8.18;4.28;;;19.40;99.90;;;;;;4988813;28;20639;-79
2023/04/23 08:54:22;;;;;;;7.65;4.32;;;19.40;99.90;;;;;;4988726;28;20282;-78
2023/04/23 08:56:50;;;;;;;5.72;4.03;;;19.50;99.90;;;;;;4987708;28;20204;-79
2023/04/23 08:59:20;;;;;;;7.00;3.70;;;19.50;99.90;;;;;;4986498;28;20220;-82
2023/04/23 09:01:47;;;;;;;11.85;4.13;;;19.40;99.90;;;;;;4992040;28;20362;-80
2023/04/23 09:04:15;;;;;;;4.35;2.92;;;19.20;99.90;;;;;;4986777;28;21357;-79
2023/04/23 09:06:43;;;;;;;8.60;3.67;;;18.90;99.90;;;;;;4989166;28;20612;-81
2023/04/23 09:09:12;;;;;;;8.25;3.38;;;18.70;99.90;;;;;;4985722;28;20218;-77
2023/04/23 09:11:41;;;;;;;8.20;4.07;;;18.50;99.90;;;;;;4989237;28;20670;-79
2023/04/23 09:14:08;;;;;;;8.50;3.55;;;18.40;99.90;;;;;;4986702;28;20231;-79
2023/04/23 09:16:36;;;;;;;5.38;3.35;;;18.20;99.90;;;;;;4987521;28;20226;-78
2023/04/23 09:19:03;;;;;;;6.25;3.55;;;18.10;99.90;;;;;;4990498;28;20200;-78
2023/04/23 09:21:30;;;;;;;5.90;3.25;;;17.90;99.90;;;;;;4992788;28;20200;-80
2023/04/23 09:23:57;;;;;;;8.65;3.67;;;17.90;99.90;;;;;;4993912;28;20234;-78
2023/04/23 09:26:25;;;;;;;7.60;3.85;;;17.80;99.90;;;;;;4995199;28;20198;-78
2023/04/23 09:28:52;;;;;;;7.40;4.15;;;17.70;99.90;;;;;;4995299;28;20211;-79
2023/04/23 09:31:23;;;;;;;8.52;3.58;;;17.60;99.90;;;;;;4995117;28;20815;-79
2023/04/23 09:33:52;;;;;;;10.15;3.83;;;17.50;99.90;;;;;;4988990;28;20284;-79
2023/04/23 09:36:21;;;;;;;10.40;3.95;;;17.40;99.90;;;;;;4991094;28;20223;-78
2023/04/23 09:38:48;;;;;;;8.23;3.42;;;17.30;99.90;;;;;;4994741;28;20211;-78
2023/04/23 09:41:22;;;;;;;7.78;3.70;;;17.20;99.90;;;;;;4994746;28;20623;-79
2023/04/23 09:43:53;;;;;;;4.78;3.25;;;17.20;99.90;;;;;;4994360;28;20214;-78
2023/04/23 09:46:31;;;;;;;7.50;3.70;;;17.40;99.90;;;;;;4994928;28;20210;-78
2023/04/23 09:48:58;;;;;;;7.18;5.28;;;17.40;99.90;;;;;;4994355;28;20208;-78
2023/04/23 09:51:27;;;;;;;10.02;5.15;;;17.40;99.90;;;;;;4995356;28;20616;-77
2023/04/23 09:53:54;;;;;;;7.93;5.78;;;17.30;99.90;;;;;;4995162;28;20576;-77
2023/04/23 09:56:21;;;;;;;10.43;4.97;;;17.30;99.90;;;;;;4993707;28;20200;-79
2023/04/23 09:58:48;;;;;;;8.65;5.40;;;17.20;99.90;;;;;;4994340;28;20204;-79
2023/04/23 10:01:17;;;;;;;11.82;5.35;;;17.40;99.90;;;;;;4995007;28;20211;-77
2023/04/23 10:03:44;;;;;;;10.38;4.55;;;17.60;99.90;;;;;;4994441;28;20216;-78
2023/04/23 10:06:14;;;;;;;9.52;5.07;;;17.90;99.90;;;;;;4994728;28;20239;-77
2023/04/23 10:08:41;;;;;;;6.50;4.38;;;18.10;99.90;;;;;;4994241;28;20501;-78
2023/04/23 10:11:08;;;;;;;7.97;4.05;;;18.20;99.90;;;;;;4994556;28;20236;-78
2023/04/23 10:13:36;;;;;;;6.35;4.20;;;18.30;99.90;;;;;;4994554;28;20351;-79
2023/04/23 10:16:05;;;;;;;7.20;4.30;;;18.30;99.90;;;;;;4994397;28;20543;-79
2023/04/23 10:18:36;;;;;;;7.10;4.35;;;18.20;99.90;;;;;;4994440;28;20216;-78
2023/04/23 10:21:03;;;;;;;8.88;4.57;;;18.40;99.90;;;;;;4994626;28;20218;-79
2023/04/23 10:23:33;;;;;;;10.70;4.70;;;18.50;99.90;;;;;;4993568;28;20223;-79
2023/04/23 10:26:03;;;;;;;7.20;4.35;;;18.70;99.90;;;;;;4974210;28;20284;-79
2023/04/23 10:28:35;;;;;;;11.57;5.00;;;18.60;35.00;;;;;;4975423;28;20207;-78
2023/04/23 10:31:03;;;;;;;11.18;4.32;;;18.30;25.80;;;;;;4988792;28;20226;-77
2023/04/23 10:33:33;;;;;;;9.55;4.93;;;18.40;99.90;;;;;;4994562;28;20199;-78
2023/04/23 10:36:00;;;;;;;8.68;4.40;;;18.40;1.00;;;;;;4994859;28;20223;-79
2023/04/23 10:38:27;;;;;;;9.25;4.10;;;18.50;42.60;;;;;;4993543;28;20239;-77
2023/04/23 10:40:56;;;;;;;6.30;4.10;;;18.40;1.00;;;;;;4994709;28;20204;-78
2023/04/23 10:43:24;;;;;;;10.23;3.60;;;18.40;1.00;;;;;;4993613;28;20672;-78
2023/04/23 10:45:52;;;;;;;10.75;3.58;;;18.40;99.90;;;;;;4994020;28;20199;-79
2023/04/23 10:48:20;;;;;;;6.25;3.45;;;18.70;99.90;;;;;;4994012;28;20192;-79
2023/04/23 10:50:58;;;;;;;7.13;2.85;;;18.90;1.00;;;;;;4993893;28;20346;-78
2023/04/23 10:53:25;;;;;;;5.43;3.10;;;19.10;1.00;;;;;;4994449;28;20196;-78
2023/04/23 10:56:05;;;;;;;5.47;3.15;;;18.90;1.00;;;;;;4993806;28;20200;-77
2023/04/23 10:58:48;;;;;;;9.57;3.58;;;18.90;1.00;;;;;;4993205;28;20219;-79
2023/04/23 11:01:16;;;;;;;7.20;3.78;;;18.90;1.00;;;;;;4994178;28;20214;-81
2023/04/23 11:03:43;;;;;;;8.05;3.25;;;18.80;99.90;;;;;;4991417;28;20216;-80
2023/04/23 11:06:15;;;;;;;9.73;3.00;;;18.80;1.00;;;;;;4987809;28;20216;-80
2023/04/23 11:08:52;;;;;;;8.05;3.65;;;18.90;1.00;;;;;;4994273;28;20200;-81
2023/04/23 11:11:24;;;;;;;6.55;2.83;;;18.90;1.00;;;;;;4993175;28;20301;-79
2023/04/23 11:13:53;;;;;;;7.45;2.70;;;18.60;1.00;;;;;;4993339;28;20220;-79
2023/04/23 11:16:22;;;;;;;9.02;2.75;;;18.40;1.00;;;;;;4993771;28;20204;-80
2023/04/23 11:19:02;;;;;;;6.63;3.10;;;18.30;1.00;;;;;;4986569;28;20210;-81
2023/04/23 11:22:01;;;;;;;6.68;2.75;;;18.30;1.00;;;;;;4984051;28;20586;-80
2023/04/23 11:24:30;;;;;;;4.10;2.80;;;18.40;1.00;;;;;;4973560;28;20260;-80
2023/04/23 11:26:58;;;;;;;6.75;2.88;;;18.60;19.80;;;;;;4982007;28;20212;-80
2023/04/23 11:29:27;;;;;;;8.60;3.30;;;18.80;65.60;;;;;;4974009;28;20212;-78
2023/04/23 11:31:56;;;;;;;8.57;3.40;;;19.00;99.90;;;;;;4974000;28;20583;-80
2023/04/23 11:34:24;;;;;;;9.27;2.88;;;18.90;99.90;;;;;;4986879;28;20212;-80
2023/04/23 11:36:53;;;;;;;9.23;3.20;;;18.90;99.90;;;;;;4993651;28;20200;-80
2023/04/23 11:39:23;;;;;;;7.28;2.92;;;18.90;99.90;;;;;;4993139;28;20204;-80
2023/04/23 11:41:51;;;;;;;8.45;2.45;;;18.90;99.90;;;;;;4992152;28;20211;-79
2023/04/23 11:44:19;;;;;;;8.82;2.85;;;18.90;99.90;;;;;;4992079;28;20225;-80
2023/04/23 11:46:48;;;;;;;8.10;2.63;;;18.90;99.90;;;;;;4993506;28;20211;-78
2023/04/23 11:49:15;;;;;;;5.32;2.80;;;19.00;99.90;;;;;;4992497;28;20226;-79
2023/04/23 11:51:43;;;;;;;8.52;3.33;;;19.00;99.90;;;;;;4992382;28;22009;-79
2023/04/23 11:54:12;;;;;;;8.88;3.03;;;19.00;99.90;;;;;;4991612;28;20243;-80
2023/04/23 11:56:42;;;;;;;8.13;3.42;;;19.00;99.90;;;;;;4991824;28;20231;-80
2023/04/23 11:59:09;;;;;;;8.40;3.13;;;18.90;99.90;;;;;;4991713;28;20286;-78
2023/04/23 12:01:47;;;;;;;6.20;2.85;;;18.80;99.90;;;;;;4992074;28;20208;-81
2023/04/23 12:04:15;;;;;;;9.90;3.15;;;18.60;99.90;;;;;;4992067;28;20417;-78
2023/04/23 12:06:44;;;;;;;9.38;3.38;;;18.70;99.90;;;;;;4991672;28;20299;-79
2023/04/23 12:09:12;;;;;;;8.63;2.60;;;18.70;99.90;;;;;;4992608;28;20202;-78
2023/04/23 12:11:40;;;;;;;7.28;3.00;;;18.70;99.90;;;;;;4991838;28;20271;-78
2023/04/23 12:14:08;;;;;;;6.78;2.58;;;18.80;99.90;;;;;;4991797;28;20231;-78
2023/04/23 12:16:39;;;;;;;7.03;2.63;;;18.90;99.90;;;;;;4991331;28;20230;-78
2023/04/23 12:19:12;;;;;;;5.35;2.40;;;19.00;99.90;;;;;;4991556;28;20204;-79
2023/04/23 12:21:53;;;;;;;5.55;2.00;;;19.10;99.90;;;;;;4992027;28;20188;-78
2023/04/23 12:24:21;;;;;;;4.95;1.90;;;18.90;99.90;;;;;;4971572;28;20220;-77
2023/04/23 12:26:53;;;;;;;5.50;2.00;;;19.00;99.90;;;;;;4972336;28;20590;-79
2023/04/23 12:29:21;;;;;;;8.80;2.22;;;19.00;99.90;;;;;;4981337;28;20216;-79
2023/04/23 12:31:49;;;;;;;7.43;2.65;;;19.00;99.90;;;;;;4991484;28;20207;-76
2023/04/23 12:34:16;;;;;;;8.60;2.65;;;19.00;99.90;;;;;;4991057;28;20234;-78
2023/04/23 12:36:46;;;;;;;6.32;2.85;;;18.90;99.90;;;;;;4991098;28;20207;-78
2023/04/23 12:39:24;;;;;;;9.45;2.72;;;18.90;99.90;;;;;;4992018;28;20207;-77
2023/04/23 12:41:54;;;;;;;7.07;2.38;;;18.90;99.90;;;;;;4991861;28;20203;-79